• Join FlightAware (Why Join?)
  • Login
  • US Flag 
01:13AM EDT


 

Airport Tracker/Info


-or-


 

Live Flight TrackerFlight Track Log ✈ EJA885 ✈ 14-Jul-2013 ✈ KSJC - KSTS

Flight Track Log - Related Links

Times and Time Zones

All times are in EDT time to prevent confusion due to time zone crossing. See the EJA885 flight status page for this flight to view local times or setup timezone preferences in your user account.

Time Position Orientation Groundspeed Altitude Reporting Facility
EDT Latitude Longitude Course Direction KTS MPH feet Rate Location/Type
03:38PM 37.4686 -121.9114 340° North 255 293 5,000  Level Oakland Center
03:39PM 37.4828 -121.8239 78° East 269 310 5,000  Level Oakland Center
03:40PM 37.5581 -121.8275 358° North 297 342 5,000  Level Oakland Center
03:41PM 37.6331 -121.8583 342° North 288 331 5,000  Level Oakland Center
03:42PM 37.7694 -122.1012 340° North  Level FlightAware Approximate
03:42PM 37.7003 -121.8989 334° Northwest 289 333 5,000  Level Oakland Center
03:43PM 37.8393 -122.1334 340° North  Level FlightAware Approximate
03:43PM 37.7581 -121.9614 319° Northwest 276 318 5,000  Level Oakland Center
03:44PM 37.8272 -122.0378 319° Northwest 276 318 5,000  Level Oakland Center
03:45PM 37.8853 -122.1025 319° Northwest 277 319 5,000  Level Oakland Center
03:46PM 37.9436 -122.1672 319° Northwest 279 321 5,000  Level Oakland Center
03:47PM 38.0019 -122.2331 318° Northwest 282 325 5,000  Level Oakland Center
03:48PM 38.0597 -122.2992 318° Northwest 283 326 5,000  Level Oakland Center
03:49PM 38.1294 -122.3761 319° Northwest 281 323 5,000 -60 Level Oakland Center
03:50PM 38.1867 -122.4425 318° Northwest 281 323 4,900 -240 Descending Oakland Center
03:51PM 38.2436 -122.5078 318° Northwest 279 321 4,600 -240 Descending Oakland Center
03:52PM 38.3006 -122.5717 319° Northwest 276 318 4,500 -60 Descending Oakland Center
03:53PM 38.3581 -122.6383 318° Northwest 278 320 4,500 -420 Level Oakland Center
03:54PM 38.4131 -122.7014 318° Northwest 275 316 3,700 -1,140 Descending Oakland Center
03:55PM 38.4667 -122.7497 325° Northwest 256 295 2,200 -1,020 Descending Oakland Center
03:56PM 38.5228 -122.7803 337° Northwest 204 235 1,600 -840 Descending Oakland Center
03:57PM 38.5386 -122.8150 300° West 172 198 600 -1,020 Descending Oakland Center